Peterborough, New Hampshire
Current Conditions -  °F | °C
As of 4:52 PM on Monday 20 Oct 2014 (Local Time) from KAFN Reporting Station
Clear Clear  
Wind Chill: 51°   Ceiling: Unl
Heat Index: 51°   Visibility: 10mi
Dew Point: 33°   Wind: 8mph
Humidity: 50%   Direction: 220°SW
Pressure: 29.95"   Gusts: NA
Location:  42.87°N, 71.95°W
Report Text: KAFN 202052Z AUTO 22007KT 10SM CLR 11/01 A2995 RMK AO2 SLP155 T01060006 55002
Loading
Personal Weather Stations






























Interactive Weather Map
Tropical Storm Tracking
New forecast layout! Learn more

10-Day Weather Forecast

Advertisements
Track Severe Weather on mobile